Time;durP1;ratioP1;P1;durP2;ratioP2;P2;SDS_P1;SDS_P2;PMS_P1;PMS_P2;Temp;Humidity;BMP_temperature;BMP_pressure;BME280_temperature;BME280_humidity;BME280_pressure;Samples;Min_cycle;Max_cycle;Signal;HPM_P1;HPM_P2
2021/08/02 03:30:59;;;;;;;4.43;2.00;;;15.10;99.70;;;;;;5012414;28;20181;-67
2021/08/02 03:33:31;;;;;;;3.60;1.90;;;15.00;99.70;;;;;;5013045;28;20229;-67
2021/08/02 03:36:02;;;;;;;2.30;1.60;;;15.00;99.70;;;;;;5012745;28;20496;-67
2021/08/02 03:38:30;;;;;;;4.87;1.90;;;15.00;99.70;;;;;;5013172;28;20826;-67
2021/08/02 03:40:58;;;;;;;3.33;1.87;;;15.00;99.70;;;;;;5012929;28;20448;-67
2021/08/02 03:43:25;;;;;;;3.03;1.57;;;14.90;99.70;;;;;;5012908;28;20465;-67
2021/08/02 03:45:53;;;;;;;2.70;1.67;;;15.00;99.70;;;;;;5012536;28;20453;-67
2021/08/02 03:48:23;;;;;;;4.43;1.70;;;15.00;99.70;;;;;;5012879;28;20856;-67
2021/08/02 03:50:50;;;;;;;4.13;2.20;;;15.00;99.70;;;;;;5012980;28;20836;-67
2021/08/02 03:53:17;;;;;;;2.77;1.83;;;15.00;99.70;;;;;;5012842;28;20469;-67
2021/08/02 03:55:45;;;;;;;2.20;1.37;;;15.10;99.70;;;;;;5012208;28;20991;-67
2021/08/02 03:58:12;;;;;;;3.20;1.70;;;15.10;99.70;;;;;;5012862;28;20458;-67
2021/08/02 04:00:39;;;;;;;2.90;1.70;;;15.10;99.70;;;;;;5012499;28;21014;-67
2021/08/02 04:03:07;;;;;;;3.00;1.87;;;15.10;99.70;;;;;;5012311;28;20481;-67
2021/08/02 04:05:35;;;;;;;3.00;1.87;;;15.10;99.70;;;;;;5012083;28;20450;-67
2021/08/02 04:08:02;;;;;;;2.80;1.60;;;15.10;99.70;;;;;;5012586;28;20481;-67
2021/08/02 04:10:30;;;;;;;2.57;1.37;;;15.00;99.70;;;;;;5012378;28;20823;-67
2021/08/02 04:12:57;;;;;;;2.70;1.73;;;15.00;99.70;;;;;;5012276;28;20520;-67
2021/08/02 04:15:24;;;;;;;5.60;1.93;;;15.00;99.70;;;;;;5011115;28;20472;-67
2021/08/02 04:17:51;;;;;;;4.97;2.00;;;15.00;99.70;;;;;;5012374;28;20453;-67
2021/08/02 04:20:18;;;;;;;3.30;2.23;;;15.00;99.70;;;;;;5012234;28;20449;-67
2021/08/02 04:22:48;;;;;;;3.10;1.90;;;15.00;99.70;;;;;;5012153;28;20928;-67
2021/08/02 04:25:15;;;;;;;3.50;1.70;;;15.00;99.70;;;;;;5011793;28;20469;-67
2021/08/02 04:27:42;;;;;;;2.77;1.77;;;15.00;99.70;;;;;;5012149;28;20895;-67
2021/08/02 04:30:10;;;;;;;7.50;2.10;;;15.10;99.70;;;;;;5011578;28;20473;-67
2021/08/02 04:32:36;;;;;;;3.10;1.80;;;15.10;99.70;;;;;;5012196;28;20474;-67
2021/08/02 04:35:04;;;;;;;4.37;2.10;;;15.20;99.70;;;;;;5011466;28;20504;-67
2021/08/02 04:37:30;;;;;;;2.93;2.10;;;15.20;99.70;;;;;;5012150;28;20449;-67
2021/08/02 04:39:58;;;;;;;3.33;1.80;;;15.30;99.70;;;;;;5011905;28;20468;-67
2021/08/02 04:42:25;;;;;;;3.07;1.70;;;15.20;99.70;;;;;;5011766;28;20469;-67
2021/08/02 04:44:52;;;;;;;2.47;1.50;;;15.20;99.70;;;;;;5011355;28;20452;-67
2021/08/02 04:47:18;;;;;;;3.83;1.83;;;15.10;99.70;;;;;;5011698;28;20477;-67
2021/08/02 04:49:45;;;;;;;4.20;1.90;;;15.10;99.70;;;;;;5011874;28;20452;-67
2021/08/02 04:52:12;;;;;;;2.93;1.70;;;15.20;99.70;;;;;;5011159;28;20473;-66
2021/08/02 04:54:38;;;;;;;2.83;1.80;;;15.20;99.70;;;;;;5011496;28;20445;-67
2021/08/02 04:57:06;;;;;;;7.70;1.80;;;15.30;99.70;;;;;;5011504;28;20472;-67
2021/08/02 04:59:33;;;;;;;4.60;1.90;;;15.30;99.70;;;;;;5011693;28;20450;-67
2021/08/02 05:02:00;;;;;;;3.00;1.60;;;15.30;99.70;;;;;;5011204;28;20858;-67
2021/08/02 05:04:27;;;;;;;3.30;1.80;;;15.30;99.70;;;;;;5010959;28;20450;-67
2021/08/02 05:06:53;;;;;;;2.67;1.70;;;15.30;99.70;;;;;;5011365;28;20493;-67
2021/08/02 05:09:20;;;;;;;4.47;2.00;;;15.20;99.70;;;;;;5011515;28;20569;-67
2021/08/02 05:11:47;;;;;;;2.50;1.90;;;15.20;99.70;;;;;;5011122;28;20487;-67
2021/08/02 05:14:15;;;;;;;1.90;1.50;;;15.20;99.70;;;;;;5010778;28;20450;-67
2021/08/02 05:16:43;;;;;;;3.67;1.90;;;15.30;99.70;;;;;;5010508;28;20445;-67
2021/08/02 05:19:10;;;;;;;3.40;1.77;;;15.30;99.70;;;;;;5011357;28;20453;-67
2021/08/02 05:21:37;;;;;;;3.30;2.10;;;15.40;99.70;;;;;;5011043;28;20846;-67
2021/08/02 05:24:04;;;;;;;3.27;1.87;;;15.40;99.70;;;;;;5010930;28;20446;-66
2021/08/02 05:26:31;;;;;;;3.83;2.07;;;15.40;99.70;;;;;;5010734;28;20446;-67
2021/08/02 05:28:59;;;;;;;2.50;1.53;;;15.40;99.70;;;;;;5011172;28;20975;-67
2021/08/02 05:31:27;;;;;;;3.47;1.73;;;15.40;99.70;;;;;;5010348;28;21101;-67
2021/08/02 05:33:53;;;;;;;3.43;1.90;;;15.50;99.70;;;;;;5010825;28;20449;-67
2021/08/02 05:36:20;;;;;;;4.13;1.57;;;15.50;99.70;;;;;;5010588;28;20527;-67
2021/08/02 05:38:47;;;;;;;5.13;1.90;;;15.50;99.70;;;;;;5010961;28;20458;-67
2021/08/02 05:41:13;;;;;;;2.30;1.60;;;15.50;99.70;;;;;;5010690;28;20437;-67
2021/08/02 05:43:40;;;;;;;3.50;2.10;;;15.50;99.70;;;;;;5010713;28;20476;-67
2021/08/02 05:46:07;;;;;;;2.53;1.73;;;15.60;99.70;;;;;;5010401;28;20541;-67
2021/08/02 05:48:35;;;;;;;3.17;1.80;;;15.60;99.70;;;;;;5010602;28;20880;-67
2021/08/02 05:51:02;;;;;;;4.47;1.87;;;15.50;99.70;;;;;;5010620;28;20445;-67
2021/08/02 05:53:29;;;;;;;2.20;1.60;;;15.60;99.70;;;;;;5010318;28;20889;-67
2021/08/02 05:55:55;;;;;;;4.10;1.90;;;15.60;99.70;;;;;;5010322;28;20820;-67
2021/08/02 05:58:22;;;;;;;3.10;1.80;;;15.60;99.70;;;;;;5010452;28;20468;-67
2021/08/02 06:00:49;;;;;;;2.57;1.63;;;15.60;99.70;;;;;;5010664;28;20446;-67
2021/08/02 06:03:15;;;;;;;3.73;1.90;;;15.60;99.70;;;;;;5009126;28;20477;-67
2021/08/02 06:05:43;;;;;;;2.90;1.70;;;15.50;99.70;;;;;;5010187;28;20453;-67
2021/08/02 06:08:10;;;;;;;3.10;1.70;;;15.50;99.70;;;;;;5010361;28;20481;-67
2021/08/02 06:10:37;;;;;;;3.30;1.83;;;15.50;99.70;;;;;;5010599;28;20826;-67
2021/08/02 06:13:04;;;;;;;3.00;1.53;;;15.50;99.70;;;;;;5010017;28;20539;-67
2021/08/02 06:15:31;;;;;;;2.73;1.83;;;15.60;99.70;;;;;;5009378;28;20450;-67
2021/08/02 06:17:57;;;;;;;3.30;2.03;;;15.60;99.70;;;;;;5010374;28;20503;-67
2021/08/02 06:20:24;;;;;;;4.43;2.00;;;15.60;99.70;;;;;;5010452;28;20441;-67
2021/08/02 06:22:52;;;;;;;3.03;1.77;;;15.60;99.70;;;;;;5009994;28;20497;-67
2021/08/02 06:25:19;;;;;;;2.80;1.80;;;15.60;99.70;;;;;;5010174;28;20525;-67
2021/08/02 06:27:46;;;;;;;2.87;1.47;;;15.70;99.70;;;;;;5010067;28;20712;-67
2021/08/02 06:30:13;;;;;;;2.80;1.83;;;15.70;99.70;;;;;;5009844;28;20456;-67
2021/08/02 06:32:40;;;;;;;3.17;1.70;;;15.70;99.70;;;;;;5010051;28;20465;-67
2021/08/02 06:35:07;;;;;;;6.50;2.10;;;15.70;99.70;;;;;;5009842;28;20446;-67
2021/08/02 06:37:34;;;;;;;3.17;1.90;;;15.80;99.70;;;;;;5010083;28;20442;-67
2021/08/02 06:40:02;;;;;;;3.33;1.80;;;15.80;99.70;;;;;;5010216;28;20499;-67
2021/08/02 06:42:28;;;;;;;3.07;1.83;;;15.80;99.70;;;;;;5009853;28;20465;-67
2021/08/02 06:44:55;;;;;;;2.40;1.40;;;15.90;99.70;;;;;;5009903;28;20824;-67
2021/08/02 06:47:22;;;;;;;2.97;1.80;;;15.90;99.70;;;;;;5010228;28;20473;-67
2021/08/02 06:49:48;;;;;;;3.37;1.63;;;16.00;99.70;;;;;;5010171;28;20449;-67
2021/08/02 06:52:15;;;;;;;6.40;2.30;;;16.00;99.70;;;;;;5010238;28;20502;-67
2021/08/02 06:54:42;;;;;;;3.07;2.13;;;16.20;99.70;;;;;;5009772;28;20446;-67
2021/08/02 06:57:10;;;;;;;1.97;1.47;;;16.20;99.70;;;;;;5010132;28;20453;-67
2021/08/02 06:59:36;;;;;;;3.90;1.80;;;16.20;99.70;;;;;;5010075;28;20457;-67
2021/08/02 07:04:32;;;;;;;3.57;1.90;;;16.40;99.70;;;;;;5027652;22;20586;-67
2021/08/02 07:06:59;;;;;;;3.73;1.90;;;16.40;99.70;;;;;;5028500;28;20451;-67
2021/08/02 07:09:25;;;;;;;3.00;1.70;;;16.50;99.70;;;;;;5029314;28;20483;-67
2021/08/02 07:11:52;;;;;;;2.30;1.40;;;16.60;99.70;;;;;;5029631;28;20887;-67
2021/08/02 07:14:20;;;;;;;2.33;1.50;;;16.70;99.70;;;;;;5028917;28;20523;-67
2021/08/02 07:16:47;;;;;;;2.10;1.50;;;16.60;99.70;;;;;;5032600;28;20902;-67
2021/08/02 07:19:14;;;;;;;3.37;1.50;;;16.70;99.70;;;;;;5033044;28;20441;-67
2021/08/02 07:21:40;;;;;;;2.63;1.53;;;16.80;99.70;;;;;;5033283;28;20440;-67
2021/08/02 07:24:07;;;;;;;5.70;2.37;;;16.80;99.70;;;;;;5032586;28;20642;-68
2021/08/02 07:26:34;;;;;;;2.50;1.60;;;16.80;99.70;;;;;;5032988;28;20448;-67
2021/08/02 07:29:02;;;;;;;2.87;1.77;;;16.80;99.70;;;;;;5032779;28;20553;-68
2021/08/02 07:31:30;;;;;;;2.37;2.03;;;16.90;99.70;;;;;;5032674;28;20543;-67
2021/08/02 07:33:57;;;;;;;3.70;2.10;;;16.90;99.70;;;;;;5032585;28;20464;-67
2021/08/02 07:36:24;;;;;;;5.40;1.73;;;17.10;99.70;;;;;;5032533;28;20865;-67
2021/08/02 07:38:50;;;;;;;3.30;1.60;;;17.20;99.70;;;;;;5032555;28;20867;-67
2021/08/02 07:41:17;;;;;;;2.67;1.60;;;17.30;99.70;;;;;;5032792;28;20444;-67
2021/08/02 07:43:45;;;;;;;4.80;2.10;;;17.30;99.70;;;;;;5032375;28;20487;-67
2021/08/02 07:46:12;;;;;;;3.50;1.60;;;17.50;99.70;;;;;;5032374;28;20475;-67
2021/08/02 07:48:41;;;;;;;3.13;2.13;;;17.40;99.70;;;;;;5032571;28;21015;-67
2021/08/02 07:51:08;;;;;;;2.60;1.50;;;17.50;99.70;;;;;;5032585;28;20449;-67
2021/08/02 07:53:34;;;;;;;3.20;1.70;;;17.60;99.70;;;;;;5032210;28;20476;-67
2021/08/02 07:56:01;;;;;;;2.90;1.80;;;17.50;99.70;;;;;;5031975;28;21001;-67
2021/08/02 07:58:28;;;;;;;3.47;1.73;;;17.60;99.70;;;;;;5032476;28;20499;-67
2021/08/02 08:00:54;;;;;;;4.53;2.20;;;17.70;99.70;;;;;;5032511;28;20448;-67
2021/08/02 08:03:22;;;;;;;3.37;2.00;;;17.80;99.70;;;;;;5032000;28;20854;-68
2021/08/02 08:05:50;;;;;;;3.23;1.83;;;18.00;99.70;;;;;;5014248;28;20454;-67
2021/08/02 08:08:20;;;;;;;2.40;1.67;;;18.20;99.70;;;;;;5012454;28;20481;-67
2021/08/02 08:10:47;;;;;;;3.83;1.87;;;18.30;99.70;;;;;;5012511;28;20744;-67
2021/08/02 08:13:13;;;;;;;2.70;1.60;;;18.20;99.70;;;;;;5012211;28;21037;-67
2021/08/02 08:15:40;;;;;;;2.03;1.60;;;18.20;99.70;;;;;;5011335;28;20456;-68
2021/08/02 08:18:07;;;;;;;3.00;1.70;;;18.30;99.70;;;;;;5012322;28;20580;-67
2021/08/02 08:20:34;;;;;;;2.03;1.37;;;18.50;99.70;;;;;;5012137;28;20449;-67
2021/08/02 08:23:02;;;;;;;2.63;1.60;;;18.60;99.70;;;;;;5012130;28;20474;-67
2021/08/02 08:25:29;;;;;;;2.37;1.60;;;18.50;99.70;;;;;;5011349;28;20944;-68
2021/08/02 08:27:55;;;;;;;2.33;1.53;;;18.50;99.70;;;;;;5011153;28;21023;-67
2021/08/02 08:30:22;;;;;;;2.87;1.80;;;18.40;99.70;;;;;;5012014;28;20504;-67
2021/08/02 08:32:49;;;;;;;3.00;1.60;;;18.60;99.70;;;;;;5011967;28;20449;-68
2021/08/02 08:35:16;;;;;;;3.23;2.10;;;18.80;99.70;;;;;;5011643;28;20464;-67
2021/08/02 08:37:43;;;;;;;2.00;1.63;;;18.70;99.70;;;;;;5012030;28;20442;-68
2021/08/02 08:40:12;;;;;;;3.43;1.80;;;18.60;99.70;;;;;;5012117;28;20803;-68
2021/08/02 08:42:40;;;;;;;4.00;1.60;;;18.80;99.70;;;;;;5031507;28;21011;-67
2021/08/02 08:45:08;;;;;;;2.77;1.50;;;18.80;99.70;;;;;;5031160;28;20502;-67
2021/08/02 08:47:35;;;;;;;2.50;1.70;;;18.80;99.70;;;;;;5031538;28;20452;-67
2021/08/02 08:50:03;;;;;;;2.00;1.40;;;19.00;99.70;;;;;;5031649;28;20480;-67
2021/08/02 08:52:31;;;;;;;4.23;1.70;;;19.10;99.70;;;;;;5024674;28;20465;-67
2021/08/02 08:54:58;;;;;;;2.20;1.50;;;19.20;99.70;;;;;;5018280;28;20445;-68
2021/08/02 08:57:26;;;;;;;2.93;1.70;;;19.20;99.70;;;;;;5031364;28;20500;-68
2021/08/02 08:59:54;;;;;;;2.80;1.70;;;19.20;99.70;;;;;;5020823;28;20441;-68
2021/08/02 09:02:25;;;;;;;1.77;1.30;;;19.50;99.70;;;;;;5016403;28;20437;-68
2021/08/02 09:04:53;;;;;;;3.60;1.50;;;19.70;99.70;;;;;;5024303;28;20516;-67
2021/08/02 09:07:20;;;;;;;2.80;1.73;;;19.80;99.70;;;;;;5015252;28;20441;-67
2021/08/02 09:09:47;;;;;;;2.80;1.60;;;19.90;99.70;;;;;;5023672;28;20552;-68
2021/08/02 09:12:16;;;;;;;2.70;1.60;;;20.00;99.70;;;;;;5011110;28;20682;-67
2021/08/02 09:14:55;;;;;;;3.17;1.90;;;19.80;99.70;;;;;;5018159;28;20457;-67
2021/08/02 09:17:33;;;;;;;3.17;1.80;;;19.80;99.70;;;;;;5030340;28;20976;-68
2021/08/02 09:20:01;;;;;;;2.73;1.53;;;19.80;99.70;;;;;;5018296;28;20436;-68
2021/08/02 09:22:29;;;;;;;2.80;1.70;;;19.90;99.70;;;;;;5018586;28;20468;-68
2021/08/02 09:25:14;;;;;;;2.20;1.37;;;19.90;99.70;;;;;;5013971;28;20452;-68
2021/08/02 09:27:42;;;;;;;3.80;1.80;;;19.80;99.70;;;;;;5024008;28;20903;-67
2021/08/02 09:30:19;;;;;;;3.70;1.80;;;19.60;99.70;;;;;;5027816;28;20542;-67
2021/08/02 09:32:51;;;;;;;2.27;1.67;;;19.60;99.70;;;;;;5017270;28;20747;-68
2021/08/02 09:35:33;;;;;;;1.93;1.60;;;19.40;99.70;;;;;;5021547;28;20531;-68
2021/08/02 09:38:02;;;;;;;2.13;1.37;;;19.20;99.70;;;;;;5020284;28;20437;-67
2021/08/02 09:40:37;;;;;;;2.73;1.90;;;19.00;99.70;;;;;;5019181;28;20815;-68
2021/08/02 09:43:03;;;;;;;2.87;1.70;;;18.90;99.70;;;;;;5012457;28;20495;-68
2021/08/02 09:45:44;;;;;;;4.03;1.43;;;18.80;99.70;;;;;;5017978;28;20448;-68
2021/08/02 09:48:13;;;;;;;2.23;1.53;;;18.70;99.70;;;;;;5019792;28;20544;-68
2021/08/02 09:50:43;;;;;;;3.37;1.90;;;18.70;99.70;;;;;;5017802;28;20761;-68
2021/08/02 09:53:12;;;;;;;2.73;1.73;;;18.90;99.70;;;;;;5027102;28;20566;-67
2021/08/02 09:55:40;;;;;;;3.90;1.70;;;19.60;99.70;;;;;;5049645;28;20955;-67
2021/08/02 09:58:07;;;;;;;2.63;1.67;;;20.60;99.70;;;;;;5032901;28;20520;-68
2021/08/02 10:00:38;;;;;;;2.40;1.70;;;21.50;99.70;;;;;;5029807;28;20452;-68
2021/08/02 10:03:06;;;;;;;3.30;2.17;;;22.00;99.70;;;;;;5029484;28;20858;-68
2021/08/02 10:05:36;;;;;;;4.80;1.60;;;22.60;99.70;;;;;;5029305;28;20444;-68
2021/08/02 10:08:04;;;;;;;2.70;1.70;;;23.00;99.70;;;;;;5029950;28;20240;-68
2021/08/02 10:10:31;;;;;;;2.05;1.45;;;23.20;99.70;;;;;;5027116;28;20268;-67
2021/08/02 10:12:58;;;;;;;1.77;1.30;;;23.90;99.70;;;;;;5022077;28;20241;-68
2021/08/02 10:15:27;;;;;;;2.17;1.50;;;23.90;99.20;;;;;;5011151;28;20711;-68
2021/08/02 10:17:56;;;;;;;1.90;1.50;;;23.80;99.40;;;;;;5029426;28;20267;-66
2021/08/02 10:20:26;;;;;;;2.20;1.43;;;23.80;97.60;;;;;;5029631;28;20235;-68
2021/08/02 10:22:54;;;;;;;2.43;1.63;;;23.70;99.70;;;;;;5026756;28;20328;-68
2021/08/02 10:25:32;;;;;;;1.90;1.43;;;23.00;99.70;;;;;;5007978;28;20451;-68
2021/08/02 10:28:07;;;;;;;3.13;1.70;;;22.80;99.70;;;;;;5012789;28;20883;-68
2021/08/02 10:30:34;;;;;;;2.60;1.50;;;22.30;99.70;;;;;;5015773;28;20751;-68
2021/08/02 10:33:01;;;;;;;2.10;1.60;;;21.90;99.70;;;;;;5021775;28;21033;-68
2021/08/02 10:35:43;;;;;;;2.80;1.87;;;21.70;99.70;;;;;;5019307;28;20433;-68
2021/08/02 10:38:13;;;;;;;2.30;1.60;;;21.80;99.70;;;;;;5009110;28;20448;-67
2021/08/02 10:40:57;;;;;;;1.97;1.50;;;21.70;99.70;;;;;;5009915;28;20536;-68
2021/08/02 10:43:29;;;;;;;2.60;1.50;;;21.90;99.70;;;;;;5013160;28;20460;-68
2021/08/02 10:45:57;;;;;;;2.33;1.50;;;22.10;99.70;;;;;;5029313;28;20440;-67
2021/08/02 10:48:25;;;;;;;2.30;1.50;;;21.90;99.70;;;;;;5029701;28;20448;-67
2021/08/02 10:50:53;;;;;;;2.50;1.60;;;21.70;99.70;;;;;;5032198;28;20452;-67
2021/08/02 10:53:20;;;;;;;4.10;1.50;;;21.50;99.70;;;;;;5033628;28;20464;-67
2021/08/02 10:55:49;;;;;;;2.00;1.33;;;21.50;99.70;;;;;;5032531;28;20896;-67
2021/08/02 10:58:27;;;;;;;3.00;1.70;;;21.20;99.70;;;;;;5033754;28;20833;-67
2021/08/02 11:00:58;;;;;;;3.03;1.70;;;21.30;99.70;;;;;;5026289;28;20437;-66
2021/08/02 11:03:33;;;;;;;2.70;1.70;;;21.50;99.70;;;;;;5013384;28;20531;-67
2021/08/02 11:06:07;;;;;;;2.10;1.60;;;21.20;99.70;;;;;;5013464;28;20441;-67
2021/08/02 11:08:42;;;;;;;2.27;1.50;;;20.80;99.70;;;;;;5013444;28;20460;-67
2021/08/02 11:11:10;;;;;;;2.23;1.43;;;20.70;99.70;;;;;;5013612;28;20441;-67
2021/08/02 11:13:37;;;;;;;3.27;1.70;;;20.60;99.70;;;;;;5013191;28;20804;-67
2021/08/02 11:16:05;;;;;;;3.00;1.80;;;20.70;99.70;;;;;;5012484;28;20461;-67
2021/08/02 11:18:32;;;;;;;2.57;1.43;;;20.80;99.70;;;;;;5013115;28;20454;-67
2021/08/02 11:20:58;;;;;;;1.93;1.30;;;20.40;99.70;;;;;;5013719;28;20830;-67
2021/08/02 11:23:34;;;;;;;2.67;1.50;;;20.30;99.70;;;;;;5013053;28;20462;-66
2021/08/02 11:26:08;;;;;;;3.77;1.97;;;20.20;99.70;;;;;;5012951;28;20892;-67
2021/08/02 11:28:39;;;;;;;2.40;1.60;;;20.10;99.70;;;;;;5026439;28;20886;-67
2021/08/02 11:31:06;;;;;;;2.60;1.60;;;19.80;99.70;;;;;;5032658;28;20475;-67
2021/08/02 11:33:33;;;;;;;2.40;1.40;;;19.60;99.70;;;;;;5032776;28;20465;-67
2021/08/02 11:36:00;;;;;;;1.90;1.30;;;19.40;99.70;;;;;;5031683;28;20449;-67
2021/08/02 11:38:39;;;;;;;1.73;1.27;;;19.20;99.70;;;;;;5032844;28;20444;-67
2021/08/02 11:41:07;;;;;;;2.50;1.23;;;19.10;99.70;;;;;;5032164;28;20448;-67
2021/08/02 11:43:44;;;;;;;1.80;1.20;;;18.90;99.70;;;;;;5032499;28;20834;-67
2021/08/02 11:46:13;;;;;;;2.20;1.50;;;18.80;99.70;;;;;;5032205;28;21020;-67
2021/08/02 11:48:43;;;;;;;2.23;1.30;;;18.60;99.70;;;;;;5032284;28;20448;-67
2021/08/02 11:51:10;;;;;;;1.87;1.23;;;18.60;99.70;;;;;;5032763;28;20448;-67
2021/08/02 11:53:38;;;;;;;3.03;1.40;;;18.50;99.70;;;;;;5032112;28;20572;-67
2021/08/02 11:56:06;;;;;;;2.03;1.10;;;18.50;99.70;;;;;;5031397;28;20452;-67
2021/08/02 11:58:44;;;;;;;2.67;1.30;;;18.60;99.70;;;;;;5031935;28;20452;-67
2021/08/02 12:01:11;;;;;;;1.70;1.30;;;18.80;99.70;;;;;;5031134;28;20584;-67
2021/08/02 12:03:39;;;;;;;1.60;1.20;;;18.90;99.70;;;;;;5031443;28;20503;-67
2021/08/02 12:06:07;;;;;;;3.10;1.50;;;18.90;99.70;;;;;;5024860;28;20448;-67
2021/08/02 12:08:34;;;;;;;1.83;1.33;;;19.00;99.70;;;;;;5012377;28;20456;-67
2021/08/02 12:11:04;;;;;;;1.90;1.30;;;19.10;99.70;;;;;;5014411;28;20839;-67
2021/08/02 12:13:41;;;;;;;2.00;1.30;;;18.70;99.70;;;;;;5012165;28;20469;-67
2021/08/02 12:16:09;;;;;;;2.73;1.53;;;18.70;99.70;;;;;;5010828;28;20445;-67
2021/08/02 12:18:36;;;;;;;2.23;1.50;;;19.00;99.70;;;;;;5012374;28;20793;-67
2021/08/02 12:21:12;;;;;;;3.87;1.90;;;19.10;99.70;;;;;;5012091;28;20441;-67
2021/08/02 12:23:39;;;;;;;2.13;1.57;;;19.30;99.70;;;;;;5024320;28;20587;-67
2021/08/02 12:26:18;;;;;;;2.23;1.60;;;19.50;99.70;;;;;;5031254;28;21002;-67
2021/08/02 12:28:44;;;;;;;2.53;1.67;;;19.60;99.70;;;;;;5017397;28;20449;-66
2021/08/02 12:31:16;;;;;;;2.77;1.73;;;19.70;99.70;;;;;;5031426;28;20444;-65
2021/08/02 12:33:45;;;;;;;1.90;1.50;;;19.80;99.70;;;;;;5031432;28;20476;-66
2021/08/02 12:36:12;;;;;;;2.50;1.20;;;19.80;99.70;;;;;;5031423;28;20452;-66
2021/08/02 12:38:43;;;;;;;3.30;1.63;;;19.70;99.70;;;;;;5031498;28;20451;-66
2021/08/02 12:41:10;;;;;;;1.93;1.50;;;19.80;99.70;;;;;;5031562;28;20472;-65
2021/08/02 12:43:38;;;;;;;2.20;1.50;;;19.70;99.70;;;;;;5031382;28;20472;-66
2021/08/02 12:46:05;;;;;;;1.93;1.40;;;19.90;99.70;;;;;;5031225;28;20445;-66
2021/08/02 12:48:31;;;;;;;1.97;1.20;;;19.80;99.70;;;;;;5031195;28;20979;-66
2021/08/02 12:50:58;;;;;;;2.70;1.50;;;19.90;99.70;;;;;;5031521;28;20483;-66
2021/08/02 12:53:25;;;;;;;1.93;1.40;;;20.00;99.70;;;;;;5030856;28;20487;-67
2021/08/02 12:55:52;;;;;;;1.73;1.20;;;20.10;99.70;;;;;;5030740;28;20449;-66
2021/08/02 12:58:18;;;;;;;1.90;1.20;;;20.00;99.70;;;;;;5031025;28;20460;-66
2021/08/02 13:00:47;;;;;;;1.57;1.13;;;19.90;99.70;;;;;;5031326;28;20444;-66
2021/08/02 13:03:14;;;;;;;1.90;1.20;;;19.90;99.70;;;;;;5030505;28;21022;-66
2021/08/02 13:05:41;;;;;;;2.03;1.40;;;20.10;99.70;;;;;;5030824;28;20472;-66
2021/08/02 13:08:08;;;;;;;1.70;1.20;;;20.20;99.70;;;;;;5030863;28;20951;-66
2021/08/02 13:10:35;;;;;;;1.90;1.17;;;20.10;99.70;;;;;;5030744;28;20484;-66
2021/08/02 13:13:02;;;;;;;2.10;1.40;;;20.30;99.70;;;;;;5029955;28;20861;-66
2021/08/02 13:15:28;;;;;;;2.50;1.50;;;20.30;99.70;;;;;;5030102;28;20797;-66
2021/08/02 13:17:56;;;;;;;1.80;1.30;;;20.20;99.70;;;;;;5017937;28;20453;-66
2021/08/02 13:20:23;;;;;;;2.20;1.57;;;20.30;99.70;;;;;;5030708;28;20940;-66
2021/08/02 13:22:53;;;;;;;2.10;1.37;;;20.20;99.70;;;;;;5028960;28;20468;-65
2021/08/02 13:28:05;;;;;;;2.37;1.60;;;20.20;99.70;;;;;;5018627;28;21056;-66
2021/08/02 13:30:32;;;;;;;1.77;1.20;;;20.30;99.70;;;;;;5018017;28;20500;-66
2021/08/02 13:33:00;;;;;;;3.60;1.60;;;20.20;99.70;;;;;;5025319;28;20474;-66
2021/08/02 13:35:27;;;;;;;2.33;1.60;;;20.20;99.70;;;;;;5019465;28;20446;-65
2021/08/02 13:37:54;;;;;;;2.10;1.50;;;20.20;99.70;;;;;;5014238;28;20476;-65
2021/08/02 13:40:21;;;;;;;2.93;1.80;;;20.20;99.70;;;;;;5030299;28;20451;-65
2021/08/02 13:42:48;;;;;;;3.73;2.17;;;20.40;99.70;;;;;;5030254;28;20472;-65
2021/08/02 13:45:16;;;;;;;2.70;1.63;;;20.50;99.70;;;;;;5029697;28;20448;-65
2021/08/02 13:47:43;;;;;;;2.43;1.80;;;20.70;99.70;;;;;;5030125;28;20476;-65
2021/08/02 13:50:12;;;;;;;3.43;1.83;;;20.70;99.70;;;;;;5028826;28;20487;-65
2021/08/02 13:52:39;;;;;;;3.23;1.57;;;20.80;99.70;;;;;;5013053;28;20824;-66
2021/08/02 13:55:07;;;;;;;2.10;1.53;;;20.70;99.70;;;;;;5018243;28;20944;-66
2021/08/02 13:57:34;;;;;;;2.13;1.30;;;20.80;99.70;;;;;;5019774;28;20444;-66
2021/08/02 14:00:01;;;;;;;2.50;1.60;;;20.60;99.70;;;;;;5018862;28;20433;-66
2021/08/02 14:02:28;;;;;;;2.13;1.50;;;20.80;99.70;;;;;;5017890;28;20473;-65
2021/08/02 14:04:55;;;;;;;2.50;1.57;;;21.00;99.70;;;;;;5019660;28;20437;-68
2021/08/02 14:07:25;;;;;;;3.07;1.60;;;21.00;99.70;;;;;;5018473;28;20437;-67
2021/08/02 14:09:51;;;;;;;2.93;1.60;;;20.90;99.70;;;;;;5020303;28;20516;-67
2021/08/02 14:12:21;;;;;;;2.57;1.60;;;20.70;99.70;;;;;;5017038;28;20472;-67
2021/08/02 14:14:52;;;;;;;2.90;1.60;;;20.70;99.70;;;;;;5017164;28;20500;-67
2021/08/02 14:17:22;;;;;;;2.73;1.70;;;20.80;99.70;;;;;;5017893;28;20875;-67
2021/08/02 14:19:54;;;;;;;2.67;1.50;;;20.90;99.70;;;;;;5018135;28;20955;-67
2021/08/02 14:22:23;;;;;;;2.73;1.50;;;20.80;99.70;;;;;;5017729;28;20441;-67
2021/08/02 14:24:50;;;;;;;2.60;1.60;;;20.90;99.70;;;;;;5016797;28;20830;-67
2021/08/02 14:27:17;;;;;;;2.57;1.60;;;20.80;99.70;;;;;;5017098;28;20441;-67
2021/08/02 14:29:44;;;;;;;2.67;1.40;;;20.80;99.70;;;;;;5017755;28;20484;-67
2021/08/02 14:32:11;;;;;;;2.87;1.33;;;20.90;99.70;;;;;;5018022;28;20442;-67
2021/08/02 14:34:37;;;;;;;2.37;1.50;;;20.90;99.70;;;;;;5017110;28;20452;-67
2021/08/02 14:37:09;;;;;;;2.27;1.67;;;20.70;99.70;;;;;;5019705;28;20520;-66
2021/08/02 14:39:45;;;;;;;2.93;1.60;;;20.60;99.70;;;;;;5018784;28;20441;-67
2021/08/02 14:42:14;;;;;;;2.30;1.57;;;20.50;99.70;;;;;;5016327;28;20449;-67
2021/08/02 14:44:42;;;;;;;3.07;1.83;;;20.40;99.70;;;;;;5018037;28;20498;-67
2021/08/02 14:47:10;;;;;;;3.00;1.73;;;20.40;99.70;;;;;;5017727;28;20450;-67
2021/08/02 14:49:46;;;;;;;2.07;1.50;;;20.30;99.70;;;;;;5018777;28;20466;-67
2021/08/02 14:52:15;;;;;;;2.93;1.80;;;20.10;99.70;;;;;;5018332;28;20452;-67
2021/08/02 14:54:47;;;;;;;4.03;2.00;;;20.00;99.70;;;;;;5016908;28;20473;-66
2021/08/02 14:57:15;;;;;;;2.27;1.50;;;19.70;99.70;;;;;;5017533;28;20967;-67
2021/08/02 14:59:43;;;;;;;2.43;1.60;;;19.50;99.70;;;;;;5014007;28;20459;-67
2021/08/02 15:02:12;;;;;;;2.63;1.83;;;19.40;99.70;;;;;;5013840;28;20446;-67
2021/08/02 15:04:42;;;;;;;1.90;1.40;;;19.30;99.70;;;;;;5015737;28;20460;-67
2021/08/02 15:07:12;;;;;;;2.30;1.63;;;19.30;99.70;;;;;;5015344;28;21013;-67
2021/08/02 15:09:41;;;;;;;3.60;2.03;;;19.20;99.70;;;;;;5017343;28;20441;-67
2021/08/02 15:12:09;;;;;;;3.27;1.90;;;19.20;99.70;;;;;;5017768;28;20856;-67
2021/08/02 15:14:36;;;;;;;2.67;1.70;;;19.20;99.70;;;;;;5024196;28;20471;-65
2021/08/02 15:17:04;;;;;;;2.93;1.87;;;19.20;99.70;;;;;;5030119;28;20452;-67
2021/08/02 15:19:35;;;;;;;2.60;1.60;;;19.40;99.70;;;;;;5029394;28;20437;-67
2021/08/02 15:22:04;;;;;;;2.70;1.50;;;19.70;99.70;;;;;;5020718;28;20468;-67
2021/08/02 15:24:32;;;;;;;2.47;1.60;;;19.80;99.70;;;;;;5025809;28;20456;-67
2021/08/02 15:27:04;;;;;;;3.50;2.10;;;20.00;99.70;;;;;;5023801;28;20456;-68
2021/08/02 15:29:33;;;;;;;2.60;1.77;;;19.90;99.70;;;;;;5027800;28;20441;-67
2021/08/02 15:32:02;;;;;;;2.10;1.60;;;19.80;99.70;;;;;;5028396;28;20511;-67
2021/08/02 15:34:29;;;;;;;2.97;1.60;;;19.80;99.70;;;;;;5025724;28;20812;-67
2021/08/02 15:36:55;;;;;;;3.10;1.40;;;19.80;99.70;;;;;;5023105;28;20442;-67
2021/08/02 15:39:22;;;;;;;2.90;1.70;;;19.90;99.70;;;;;;5020879;28;20470;-67
2021/08/02 15:41:51;;;;;;;2.80;1.80;;;19.90;99.70;;;;;;5049635;28;21108;-67
2021/08/02 15:44:25;;;;;;;1.93;1.60;;;19.80;99.70;;;;;;5047622;28;20471;-67
2021/08/02 15:46:53;;;;;;;3.33;1.80;;;19.70;99.70;;;;;;5052226;28;20455;-67
2021/08/02 15:49:21;;;;;;;2.43;1.50;;;19.60;99.70;;;;;;5052513;28;20443;-67
2021/08/02 15:51:51;;;;;;;2.63;1.40;;;19.70;99.70;;;;;;5051938;28;20490;-67
2021/08/02 15:54:22;;;;;;;2.43;1.50;;;19.70;99.70;;;;;;5052047;28;21017;-68
2021/08/02 15:56:54;;;;;;;2.20;1.60;;;19.60;99.70;;;;;;5043989;28;20449;-67
2021/08/02 15:59:24;;;;;;;2.47;1.57;;;19.70;99.70;;;;;;5032580;28;20441;-67
2021/08/02 16:01:53;;;;;;;3.00;1.50;;;19.70;99.70;;;;;;5024826;28;20600;-67
2021/08/02 16:04:27;;;;;;;3.07;1.90;;;19.70;99.70;;;;;;5020827;28;20495;-67
2021/08/02 16:06:58;;;;;;;2.50;1.70;;;19.70;99.70;;;;;;5021185;28;20444;-67
2021/08/02 16:09:30;;;;;;;2.33;1.40;;;19.80;99.70;;;;;;5012566;28;20444;-67
2021/08/02 16:12:07;;;;;;;2.20;1.50;;;19.90;99.70;;;;;;5012438;28;20916;-67
2021/08/02 16:14:36;;;;;;;2.43;1.80;;;20.00;99.70;;;;;;5030384;28;20468;-65
2021/08/02 16:17:07;;;;;;;2.00;1.30;;;20.10;99.70;;;;;;5032178;28;21009;-67
2021/08/02 16:19:34;;;;;;;2.77;1.50;;;20.00;99.70;;;;;;5031866;28;20495;-67
2021/08/02 16:22:01;;;;;;;2.50;1.53;;;20.00;99.70;;;;;;5031668;28;20868;-67
2021/08/02 16:24:28;;;;;;;2.83;1.60;;;20.00;99.70;;;;;;5031248;28;20464;-67
2021/08/02 16:26:54;;;;;;;2.17;1.30;;;20.00;99.70;;;;;;5029656;28;20447;-67
2021/08/02 16:29:21;;;;;;;2.10;1.40;;;20.00;99.70;;;;;;5012319;28;20972;-67